createdAt,value
2022-12-26T00:00:12.420Z,92.31
2022-12-26T00:02:43.137Z,92.46
2022-12-26T00:05:14.339Z,92.72
2022-12-26T00:07:45.333Z,92.58
2022-12-26T00:10:15.915Z,92.89
2022-12-26T00:12:50.577Z,93.16
2022-12-26T00:15:21.138Z,92.94
2022-12-26T00:17:52.704Z,92.80
2022-12-26T00:20:23.201Z,92.95
2022-12-26T00:22:54.899Z,93.07
2022-12-26T00:25:25.551Z,92.81
2022-12-26T00:27:58.662Z,92.93
2022-12-26T00:30:30.093Z,93.01
2022-12-26T00:33:00.611Z,93.07
2022-12-26T00:35:33.609Z,93.12
2022-12-26T00:38:04.011Z,93.18
2022-12-26T00:40:43.027Z,93.22
2022-12-26T00:43:16.614Z,92.96
2022-12-26T00:45:47.699Z,92.96
2022-12-26T00:48:18.103Z,93.08
2022-12-26T00:50:52.599Z,93.29
2022-12-26T00:53:23.739Z,93.23
2022-12-26T00:55:55.140Z,93.27
2022-12-26T00:58:28.733Z,93.36
2022-12-26T01:01:07.762Z,93.09
2022-12-26T01:03:38.628Z,93.15
2022-12-26T01:06:09.487Z,93.01
2022-12-26T01:08:40.101Z,93.21
2022-12-26T01:11:12.520Z,93.15
2022-12-26T01:13:46.129Z,93.18
2022-12-26T01:16:16.548Z,93.34
2022-12-26T01:18:47.009Z,93.31
2022-12-26T01:21:17.410Z,93.31
2022-12-26T01:23:47.880Z,93.50
2022-12-26T01:26:20.279Z,93.73
2022-12-26T01:28:54.994Z,93.84
2022-12-26T01:31:26.732Z,93.99
2022-12-26T01:33:58.045Z,94.04
2022-12-26T01:36:30.014Z,94.00
2022-12-26T01:39:00.523Z,93.86
2022-12-26T01:41:33.323Z,94.28
2022-12-26T01:44:30.049Z,94.18
2022-12-26T01:47:04.126Z,93.85
2022-12-26T01:49:40.419Z,93.91
2022-12-26T01:52:18.133Z,94.11
2022-12-26T01:54:52.999Z,94.04
2022-12-26T01:57:27.413Z,94.15
2022-12-26T02:00:02.280Z,94.08
2022-12-26T02:02:53.245Z,94.02
2022-12-26T02:05:34.739Z,94.06
2022-12-26T02:08:26.895Z,94.17
2022-12-26T02:11:03.691Z,94.21
2022-12-26T02:13:38.328Z,94.27
2022-12-26T02:16:15.341Z,93.94
2022-12-26T02:18:45.791Z,94.14
2022-12-26T02:21:41.039Z,94.18
2022-12-26T02:24:45.211Z,94.16
2022-12-26T02:27:45.197Z,93.97
2022-12-26T02:30:38.889Z,93.87
2022-12-26T02:33:37.531Z,93.78
2022-12-26T02:36:31.443Z,93.73
2022-12-26T02:39:43.410Z,93.82
2022-12-26T02:42:19.619Z,93.45
2022-12-26T02:45:21.214Z,93.61
2022-12-26T02:47:59.396Z,93.42
2022-12-26T02:51:07.195Z,93.42
2022-12-26T02:53:57.218Z,93.55
2022-12-26T02:56:45.754Z,93.51
2022-12-26T02:59:55.001Z,93.43
2022-12-26T03:02:47.520Z,93.48
2022-12-26T03:05:38.401Z,93.60
2022-12-26T03:08:25.607Z,93.54
2022-12-26T03:11:11.286Z,93.41
2022-12-26T03:13:44.817Z,93.25
2022-12-26T03:16:32.356Z,93.21
2022-12-26T03:19:06.031Z,93.08
2022-12-26T03:21:43.662Z,92.96
2022-12-26T03:24:17.182Z,92.96
2022-12-26T03:26:52.105Z,93.09
2022-12-26T03:29:36.640Z,93.07
2022-12-26T03:32:08.402Z,93.29
2022-12-26T03:34:43.519Z,93.17
2022-12-26T03:37:49.650Z,92.85
2022-12-26T03:40:44.853Z,92.96
2022-12-26T03:43:53.746Z,93.16
2022-12-26T03:46:41.443Z,92.85
2022-12-26T03:49:36.082Z,92.90
2022-12-26T03:52:24.480Z,92.48
2022-12-26T03:55:17.931Z,93.09
2022-12-26T03:58:07.205Z,93.29
2022-12-26T04:00:52.085Z,93.42
2022-12-26T04:03:37.753Z,93.00
2022-12-26T04:06:28.523Z,93.15
2022-12-26T04:09:23.247Z,92.84
2022-12-26T04:12:10.035Z,92.66
2022-12-26T04:14:57.760Z,92.71
2022-12-26T04:17:47.032Z,92.65
2022-12-26T04:20:23.410Z,92.80
2022-12-26T04:23:11.340Z,92.74
2022-12-26T04:26:00.404Z,93.05
2022-12-26T04:28:46.213Z,93.05
2022-12-26T04:31:36.071Z,93.07
2022-12-26T04:34:24.950Z,92.63
2022-12-26T04:37:15.205Z,92.54
2022-12-26T04:40:03.301Z,92.64
2022-12-26T04:43:02.383Z,92.56
2022-12-26T04:46:04.104Z,92.42
2022-12-26T04:48:47.684Z,92.32
2022-12-26T04:51:18.213Z,92.32
2022-12-26T04:53:48.729Z,92.28
2022-12-26T04:56:19.379Z,92.37
2022-12-26T04:58:49.938Z,92.42
2022-12-26T05:01:35.558Z,92.25
2022-12-26T05:04:18.598Z,91.96
2022-12-26T05:07:01.534Z,92.05
2022-12-26T05:09:40.292Z,92.33
2022-12-26T05:12:12.994Z,92.10
2022-12-26T05:14:46.737Z,92.06
2022-12-26T05:17:32.302Z,91.98
2022-12-26T05:20:15.221Z,91.71
2022-12-26T05:23:00.707Z,91.35
2022-12-26T05:25:46.584Z,91.48
2022-12-26T05:28:30.786Z,91.36
2022-12-26T05:31:04.061Z,91.21
2022-12-26T05:33:49.583Z,91.02
2022-12-26T05:36:23.232Z,91.11
2022-12-26T05:38:56.199Z,91.18
2022-12-26T05:41:26.860Z,91.54
2022-12-26T05:43:57.392Z,91.60
2022-12-26T05:46:28.219Z,91.66
2022-12-26T05:49:01.447Z,91.59
2022-12-26T05:51:32.483Z,91.68
2022-12-26T05:54:08.984Z,91.36
2022-12-26T05:56:48.990Z,91.46
2022-12-26T05:59:19.885Z,91.33
2022-12-26T06:01:51.250Z,91.38
2022-12-26T06:04:30.112Z,91.32
2022-12-26T06:07:00.576Z,91.53
2022-12-26T06:09:31.039Z,91.51
2022-12-26T06:12:01.651Z,91.38
2022-12-26T06:14:32.281Z,91.33
2022-12-26T06:17:02.795Z,91.20
2022-12-26T06:19:38.909Z,91.36
2022-12-26T06:22:14.165Z,91.72
2022-12-26T06:24:44.608Z,91.83
2022-12-26T06:27:15.060Z,91.58
2022-12-26T06:29:46.160Z,91.77
2022-12-26T06:32:18.372Z,92.04
2022-12-26T06:34:53.910Z,91.89
2022-12-26T06:37:24.338Z,91.84
2022-12-26T06:39:54.988Z,91.96
2022-12-26T06:42:25.502Z,91.92
2022-12-26T06:44:56.285Z,92.29
2022-12-26T06:47:27.363Z,92.18
2022-12-26T06:50:00.548Z,92.35
2022-12-26T06:52:32.904Z,92.14
2022-12-26T06:55:04.142Z,92.01
2022-12-26T06:57:34.834Z,92.10
2022-12-26T07:00:06.366Z,91.97
2022-12-26T07:02:36.960Z,92.22
2022-12-26T07:05:13.357Z,92.33
2022-12-26T07:07:47.371Z,92.32
2022-12-26T07:10:17.771Z,92.26
2022-12-26T07:12:48.324Z,92.31
2022-12-26T07:15:18.983Z,92.38
2022-12-26T07:17:49.441Z,92.25
2022-12-26T07:20:22.507Z,92.33
2022-12-26T07:22:53.333Z,92.37
2022-12-26T07:25:23.812Z,92.42
2022-12-26T07:27:56.461Z,92.54
2022-12-26T07:30:27.114Z,92.49
2022-12-26T07:32:58.316Z,92.56
2022-12-26T07:35:31.365Z,92.41
2022-12-26T07:38:01.855Z,92.26
2022-12-26T07:40:32.751Z,92.54
2022-12-26T07:43:03.569Z,92.33
2022-12-26T07:45:35.506Z,92.61
2022-12-26T07:48:08.795Z,92.37
2022-12-26T07:50:42.071Z,92.33
2022-12-26T07:53:12.684Z,92.20
2022-12-26T07:55:49.760Z,92.26
2022-12-26T07:58:20.315Z,92.12
2022-12-26T08:00:54.814Z,92.07
2022-12-26T08:03:25.521Z,92.22
2022-12-26T08:06:01.497Z,92.14
2022-12-26T08:08:32.199Z,92.22
2022-12-26T08:11:03.773Z,92.15
2022-12-26T08:13:37.759Z,92.31
2022-12-26T08:16:09.412Z,92.08
2022-12-26T08:18:40.017Z,92.01
2022-12-26T08:21:14.792Z,91.68
2022-12-26T08:23:48.328Z,91.52
2022-12-26T08:26:22.795Z,91.57
2022-12-26T08:28:55.071Z,91.33
2022-12-26T08:31:28.629Z,91.21
2022-12-26T08:34:00.412Z,91.25
2022-12-26T08:36:38.357Z,91.12
2022-12-26T08:39:09.143Z,90.97
2022-12-26T08:41:40.369Z,90.85
2022-12-26T08:44:29.178Z,90.97
2022-12-26T08:47:01.172Z,90.89
2022-12-26T08:49:31.929Z,90.62
2022-12-26T08:52:05.155Z,90.41
2022-12-26T08:54:39.220Z,90.36
2022-12-26T08:57:10.418Z,90.09
2022-12-26T08:59:41.078Z,90.24
2022-12-26T09:02:13.235Z,89.97
2022-12-26T09:04:44.099Z,89.99
2022-12-26T09:07:17.609Z,89.89
2022-12-26T09:09:48.439Z,89.82
2022-12-26T09:12:19.065Z,89.82
2022-12-26T09:14:50.352Z,89.46
2022-12-26T09:17:21.587Z,89.53
2022-12-26T09:19:52.194Z,89.66
2022-12-26T09:22:40.560Z,89.50
2022-12-26T09:25:12.524Z,89.44
2022-12-26T09:27:43.119Z,89.55
2022-12-26T09:30:19.256Z,89.62
2022-12-26T09:32:54.121Z,89.44
2022-12-26T09:35:24.858Z,89.30
2022-12-26T09:37:58.097Z,89.12
2022-12-26T09:40:36.665Z,88.95
2022-12-26T09:43:22.886Z,88.84
2022-12-26T09:46:07.169Z,88.54
2022-12-26T09:48:49.928Z,88.49
2022-12-26T09:51:20.569Z,88.60
2022-12-26T09:53:54.645Z,88.22
2022-12-26T09:59:22.468Z,88.23
2022-12-26T10:01:54.045Z,88.43
2022-12-26T10:04:30.519Z,88.26
2022-12-26T10:07:16.370Z,88.22
2022-12-26T10:10:01.323Z,88.03
2022-12-26T10:12:41.423Z,87.89
2022-12-26T10:15:37.726Z,87.41
2022-12-26T10:18:25.752Z,87.30
2022-12-26T10:21:18.923Z,87.11
2022-12-26T10:23:51.947Z,86.81
2022-12-26T10:26:27.936Z,86.75
2022-12-26T10:29:05.582Z,86.34
2022-12-26T10:31:41.276Z,86.22
2022-12-26T10:34:18.836Z,86.04
2022-12-26T10:36:53.461Z,85.58
2022-12-26T10:39:36.390Z,85.83
2022-12-26T10:42:26.426Z,85.93
2022-12-26T10:44:57.033Z,85.85
2022-12-26T10:47:30.593Z,86.32
2022-12-26T10:50:01.609Z,85.90
2022-12-26T10:52:38.142Z,86.40
2022-12-26T10:55:27.996Z,86.50
2022-12-26T10:58:06.655Z,86.63
2022-12-26T11:00:37.915Z,86.70
2022-12-26T11:03:10.655Z,86.55
2022-12-26T11:08:43.010Z,85.82
2022-12-26T11:11:22.890Z,85.79
2022-12-26T11:14:02.019Z,85.42
2022-12-26T11:16:35.448Z,85.62
2022-12-26T11:19:09.815Z,85.32
2022-12-26T11:21:39.972Z,84.97
2022-12-26T11:24:22.258Z,86.03
2022-12-26T11:26:52.705Z,86.21
2022-12-26T11:29:26.920Z,86.32
2022-12-26T11:31:59.466Z,85.12
2022-12-26T11:34:34.739Z,85.32
2022-12-26T11:37:08.746Z,85.15
2022-12-26T11:39:40.898Z,84.98
2022-12-26T11:42:13.198Z,84.67
2022-12-26T11:44:49.420Z,84.70
2022-12-26T11:47:22.803Z,84.39
2022-12-26T11:50:02.444Z,84.19
2022-12-26T11:52:40.215Z,84.39
2022-12-26T11:55:34.300Z,84.40
2022-12-26T11:58:21.051Z,84.41
2022-12-26T12:01:10.881Z,84.44
2022-12-26T12:03:49.219Z,84.47
2022-12-26T12:06:39.526Z,84.41
2022-12-26T12:09:22.817Z,84.75
2022-12-26T12:12:01.399Z,84.65
2022-12-26T12:14:49.477Z,84.98
2022-12-26T12:17:33.633Z,84.87
2022-12-26T12:20:30.558Z,85.23
2022-12-26T12:23:19.621Z,85.55
2022-12-26T12:26:02.417Z,85.18
2022-12-26T12:29:11.549Z,85.90
2022-12-26T12:31:54.227Z,85.60
2022-12-26T12:34:42.312Z,85.54
2022-12-26T12:37:26.621Z,85.36
2022-12-26T12:40:06.019Z,84.79
2022-12-26T12:42:47.013Z,84.90
2022-12-26T12:45:27.351Z,84.46
2022-12-26T12:48:21.454Z,84.05
2022-12-26T12:51:07.423Z,83.80
2022-12-26T12:53:58.211Z,83.96
2022-12-26T12:56:42.457Z,83.91
2022-12-26T12:59:22.869Z,83.91
2022-12-26T13:02:05.404Z,83.68
2022-12-26T13:04:45.062Z,83.30
2022-12-26T13:07:24.448Z,83.26
2022-12-26T13:09:59.971Z,83.24
2022-12-26T13:12:35.098Z,82.82
2022-12-26T13:15:11.154Z,82.58
2022-12-26T13:17:48.158Z,82.59
2022-12-26T13:20:24.724Z,82.77
2022-12-26T13:23:15.759Z,82.28
2022-12-26T13:26:04.633Z,82.45
2022-12-26T13:28:40.774Z,82.22
2022-12-26T13:31:11.815Z,81.71
2022-12-26T13:33:45.328Z,82.20
2022-12-26T13:36:37.686Z,82.06
2022-12-26T13:39:35.314Z,82.20
2022-12-26T13:42:33.238Z,82.49
2022-12-26T13:45:34.305Z,82.84
2022-12-26T13:48:04.900Z,82.98
2022-12-26T13:50:55.675Z,83.59
2022-12-26T13:53:33.624Z,84.21
2022-12-26T13:56:29.034Z,84.91
2022-12-26T13:59:12.272Z,85.60
2022-12-26T14:01:55.438Z,86.15
2022-12-26T14:04:46.521Z,86.95
2022-12-26T14:07:30.331Z,87.61
2022-12-26T14:10:07.558Z,88.04
2022-12-26T14:12:52.615Z,88.29
2022-12-26T14:15:31.471Z,88.68
2022-12-26T14:18:16.525Z,88.65
2022-12-26T14:21:00.428Z,89.06
2022-12-26T14:23:45.922Z,88.79
2022-12-26T14:26:31.480Z,88.83
2022-12-26T14:29:13.526Z,88.53
2022-12-26T14:32:02.299Z,88.41
2022-12-26T14:34:50.706Z,88.12
2022-12-26T14:37:29.728Z,87.78
2022-12-26T14:40:11.136Z,87.48
2022-12-26T14:43:16.570Z,87.35
2022-12-26T14:45:52.235Z,87.39
2022-12-26T14:48:56.382Z,86.78
2022-12-26T14:51:33.992Z,86.49
2022-12-26T14:54:25.837Z,86.75
2022-12-26T14:56:57.249Z,86.81
2022-12-26T14:59:32.167Z,87.36
2022-12-26T15:02:31.508Z,86.99
2022-12-26T15:05:17.165Z,86.73
2022-12-26T15:08:25.382Z,86.83
2022-12-26T15:11:36.396Z,86.68
2022-12-26T15:14:31.047Z,86.99
2022-12-26T15:17:17.892Z,86.89
2022-12-26T15:20:26.015Z,87.08
2022-12-26T15:23:27.516Z,86.70
2022-12-26T15:26:25.433Z,87.34
2022-12-26T15:29:34.876Z,86.99
2022-12-26T15:32:18.724Z,87.08
2022-12-26T15:34:59.707Z,87.10
2022-12-26T15:38:00.607Z,86.67
2022-12-26T15:40:34.244Z,86.18
2022-12-26T15:43:27.159Z,86.94
2022-12-26T15:46:03.607Z,86.65
2022-12-26T15:48:55.209Z,86.91
2022-12-26T15:51:38.499Z,87.00
2022-12-26T15:54:25.334Z,87.01
2022-12-26T15:57:16.455Z,86.79
2022-12-26T16:00:08.377Z,87.05
2022-12-26T16:02:50.466Z,86.98
2022-12-26T16:05:40.975Z,87.06
2022-12-26T16:08:46.095Z,86.86
2022-12-26T16:11:21.120Z,87.13
2022-12-26T16:13:54.735Z,87.14
2022-12-26T16:16:30.931Z,86.65
2022-12-26T16:19:01.544Z,86.46
2022-12-26T16:21:47.130Z,87.12
2022-12-26T16:24:22.129Z,86.98
2022-12-26T16:26:52.610Z,86.73
2022-12-26T16:29:24.199Z,86.57
2022-12-26T16:31:54.987Z,86.63
2022-12-26T16:34:25.614Z,86.52
2022-12-26T16:36:58.924Z,86.66
2022-12-26T16:39:29.560Z,86.65
2022-12-26T16:42:04.036Z,86.67
2022-12-26T16:44:39.309Z,86.69
2022-12-26T16:47:14.251Z,86.55
2022-12-26T16:49:46.925Z,86.21
2022-12-26T16:52:42.106Z,86.37
2022-12-26T16:55:29.259Z,86.29
2022-12-26T16:58:07.257Z,86.24
2022-12-26T17:00:38.468Z,85.87
2022-12-26T17:03:22.446Z,86.20
2022-12-26T17:05:53.132Z,85.59
2022-12-26T17:08:27.280Z,85.82
2022-12-26T17:10:57.641Z,84.81
2022-12-26T17:13:29.440Z,85.20
2022-12-26T17:16:01.874Z,85.58
2022-12-26T17:18:44.606Z,86.02
2022-12-26T17:21:20.716Z,86.26
2022-12-26T17:24:14.353Z,86.50
2022-12-26T17:26:46.436Z,86.29
2022-12-26T17:29:51.285Z,86.55
2022-12-26T17:32:35.823Z,86.79
2022-12-26T17:35:10.011Z,86.70
2022-12-26T17:37:40.735Z,86.49
2022-12-26T17:40:27.187Z,86.60
2022-12-26T17:43:06.940Z,86.45
2022-12-26T17:45:46.197Z,86.95
2022-12-26T17:48:17.703Z,87.20
2022-12-26T17:50:50.776Z,87.13
2022-12-26T17:53:28.090Z,87.25
2022-12-26T17:56:03.272Z,87.08
2022-12-26T17:58:34.341Z,86.95
2022-12-26T18:01:05.704Z,87.29
2022-12-26T18:03:36.285Z,87.05
2022-12-26T18:06:07.272Z,87.43
2022-12-26T18:08:40.037Z,87.29
2022-12-26T18:11:15.617Z,86.87
2022-12-26T18:13:46.183Z,86.52
2022-12-26T18:16:27.416Z,86.36
2022-12-26T18:18:58.737Z,85.89
2022-12-26T18:21:29.547Z,85.85
2022-12-26T18:24:00.031Z,85.64
2022-12-26T18:26:34.003Z,85.51
2022-12-26T18:29:07.662Z,85.67
2022-12-26T18:31:41.210Z,85.76
2022-12-26T18:34:12.737Z,85.95
2022-12-26T18:36:44.012Z,86.38
2022-12-26T18:39:18.425Z,86.60
2022-12-26T18:41:52.263Z,86.54
2022-12-26T18:44:26.809Z,86.81
2022-12-26T18:46:58.771Z,86.69
2022-12-26T18:49:29.687Z,87.03
2022-12-26T18:52:00.518Z,86.93
2022-12-26T18:54:39.013Z,87.14
2022-12-26T18:57:23.674Z,86.85
2022-12-26T18:59:57.490Z,86.87
2022-12-26T19:02:35.426Z,86.88
2022-12-26T19:05:06.895Z,87.14
2022-12-26T19:07:37.480Z,87.26
2022-12-26T19:10:09.515Z,87.18
2022-12-26T19:12:42.821Z,87.25
2022-12-26T19:15:17.424Z,87.36
2022-12-26T19:17:48.042Z,87.39
2022-12-26T19:20:22.605Z,87.23
2022-12-26T19:22:54.504Z,87.11
2022-12-26T19:25:27.030Z,87.21
2022-12-26T19:28:00.643Z,86.93
2022-12-26T19:30:38.277Z,86.90
2022-12-26T19:33:09.680Z,87.00
2022-12-26T19:35:42.500Z,86.86
2022-12-26T19:38:16.619Z,87.07
2022-12-26T19:40:47.133Z,86.94
2022-12-26T19:43:20.226Z,86.61
2022-12-26T19:45:50.951Z,86.65
2022-12-26T19:48:21.767Z,86.28
2022-12-26T19:50:52.320Z,86.32
2022-12-26T19:53:22.789Z,86.58
2022-12-26T19:55:53.239Z,86.52
2022-12-26T19:58:26.363Z,86.50
2022-12-26T20:00:56.827Z,86.00
2022-12-26T20:03:27.739Z,86.17
2022-12-26T20:06:00.575Z,86.07
2022-12-26T20:08:31.861Z,85.90
2022-12-26T20:11:07.835Z,85.87
2022-12-26T20:13:41.366Z,85.90
2022-12-26T20:16:37.378Z,85.89
2022-12-26T20:19:05.105Z,85.37
2022-12-26T20:21:36.118Z,85.83
2022-12-26T20:24:07.522Z,85.75
2022-12-26T20:26:38.140Z,85.47
2022-12-26T20:29:11.895Z,85.56
2022-12-26T20:31:42.799Z,85.57
2022-12-26T20:34:14.467Z,85.63
2022-12-26T20:36:45.027Z,85.67
2022-12-26T20:39:19.365Z,85.63
2022-12-26T20:41:50.004Z,85.10
2022-12-26T20:44:24.521Z,85.23
2022-12-26T20:46:55.099Z,85.53
2022-12-26T20:49:25.669Z,85.55
2022-12-26T20:51:56.528Z,85.64
2022-12-26T20:54:28.592Z,85.76
2022-12-26T20:57:00.454Z,85.49
2022-12-26T20:59:33.655Z,85.61
2022-12-26T21:02:04.448Z,85.89
2022-12-26T21:04:35.891Z,86.00
2022-12-26T21:07:06.582Z,85.79
2022-12-26T21:09:42.513Z,85.99
2022-12-26T21:12:18.104Z,85.90
2022-12-26T21:14:51.397Z,85.87
2022-12-26T21:17:22.041Z,85.60
2022-12-26T21:20:00.051Z,85.55
2022-12-26T21:22:31.237Z,85.35
2022-12-26T21:25:02.166Z,85.47
2022-12-26T21:27:34.385Z,85.24
2022-12-26T21:30:08.347Z,85.15
2022-12-26T21:32:38.911Z,85.09
2022-12-26T21:35:09.768Z,84.89
2022-12-26T21:37:52.115Z,85.02
2022-12-26T21:40:24.232Z,84.86
2022-12-26T21:42:54.755Z,84.81
2022-12-26T21:45:30.798Z,84.56
2022-12-26T21:48:01.425Z,84.69
2022-12-26T21:50:33.726Z,84.53
2022-12-26T21:53:04.667Z,84.20
2022-12-26T21:55:36.471Z,84.35
2022-12-26T21:58:07.716Z,84.27
2022-12-26T22:00:42.123Z,84.38
2022-12-26T22:03:25.195Z,84.36
2022-12-26T22:05:55.714Z,84.09
2022-12-26T22:08:26.168Z,83.85
2022-12-26T22:11:09.004Z,83.88
2022-12-26T22:13:45.672Z,83.79
2022-12-26T22:16:19.996Z,83.69
2022-12-26T22:18:50.909Z,83.66
2022-12-26T22:21:23.245Z,83.38
2022-12-26T22:23:55.329Z,83.77
2022-12-26T22:26:28.875Z,83.59
2022-12-26T22:29:00.824Z,83.84
2022-12-26T22:31:35.964Z,83.69
2022-12-26T22:34:08.182Z,83.59
2022-12-26T22:36:39.434Z,83.51
2022-12-26T22:39:12.533Z,83.17
2022-12-26T22:41:43.088Z,82.97
2022-12-26T22:44:15.534Z,82.65
2022-12-26T22:46:50.518Z,82.63
2022-12-26T22:49:21.009Z,82.51
2022-12-26T22:51:51.512Z,82.27
2022-12-26T22:54:21.966Z,82.48
2022-12-26T22:56:52.618Z,82.84
2022-12-26T22:59:57.913Z,82.92
2022-12-26T23:02:16.547Z,83.09
2022-12-26T23:04:47.787Z,83.40
2022-12-26T23:07:23.480Z,83.32
2022-12-26T23:09:54.774Z,83.19
2022-12-26T23:12:53.738Z,83.30
2022-12-26T23:15:26.294Z,83.28
2022-12-26T23:18:29.462Z,83.36
2022-12-26T23:21:15.887Z,83.73
2022-12-26T23:23:47.538Z,83.43
2022-12-26T23:26:22.581Z,83.71
2022-12-26T23:29:05.531Z,83.90
2022-12-26T23:31:36.100Z,83.78
2022-12-26T23:34:09.345Z,83.73
2022-12-26T23:36:39.920Z,83.74
2022-12-26T23:39:10.518Z,83.58
2022-12-26T23:41:44.843Z,83.79
2022-12-26T23:44:15.892Z,83.49
2022-12-26T23:46:47.873Z,83.54
2022-12-26T23:49:21.264Z,83.66
2022-12-26T23:51:55.050Z,83.55
2022-12-26T23:54:31.134Z,83.66
2022-12-26T23:57:01.773Z,83.38
2022-12-26T23:59:32.788Z,83.33
